Time;durP1;ratioP1;P1;durP2;ratioP2;P2;SDS_P1;SDS_P2;PMS_P1;PMS_P2;Temp;Humidity;BMP_temperature;BMP_pressure;BME280_temperature;BME280_humidity;BME280_pressure;Samples;Min_cycle;Max_cycle;Signal;HPM_P1;HPM_P2
2021/12/04 00:02:25;;;;;;;3.50;2.50;;;;;;;-0.98;99.46;95146.16;4985233;28;20751;-74
2021/12/04 00:04:51;;;;;;;2.75;1.73;;;;;;;-0.98;99.36;95148.00;4986685;28;20110;-72
2021/12/04 00:07:17;;;;;;;10.43;5.82;;;;;;;-0.95;99.98;95137.88;4984959;28;20041;-72
2021/12/04 00:09:47;;;;;;;5.57;3.55;;;;;;;-0.92;99.91;95141.91;4986989;28;20057;-70
2021/12/04 00:12:14;;;;;;;5.07;2.25;;;;;;;-0.97;99.45;95128.59;4983171;28;20402;-71
2021/12/04 00:14:41;;;;;;;4.57;2.13;;;;;;;-0.90;99.73;95135.44;4986275;28;20103;-72
2021/12/04 00:17:06;;;;;;;9.48;4.15;;;;;;;-0.92;99.59;95126.16;4985173;28;20181;-70
2021/12/04 00:19:32;;;;;;;5.68;3.30;;;;;;;-0.93;99.97;95127.19;4986430;28;20566;-73
2021/12/04 00:22:02;;;;;;;6.47;3.60;;;;;;;-0.94;100.00;95117.66;4985229;28;20038;-73
2021/12/04 00:24:27;;;;;;;17.48;10.20;;;;;;;-0.90;99.60;95111.00;4984236;28;20513;-70
2021/12/04 00:26:53;;;;;;;9.32;5.47;;;;;;;-0.91;100.00;95104.94;4985340;28;20129;-74
2021/12/04 00:29:20;;;;;;;5.82;3.47;;;;;;;-0.93;100.00;95099.09;4986458;28;20069;-71
2021/12/04 00:31:51;;;;;;;7.03;4.22;;;;;;;-0.94;99.65;95092.19;4983388;28;20049;-71
2021/12/04 00:34:19;;;;;;;6.72;4.05;;;;;;;-0.87;100.00;95092.97;4985813;28;20046;-72
2021/12/04 00:50:11;;;;;;;12.02;4.57;;;;;;;-0.96;99.89;95077.69;4984475;28;20053;-71
2021/12/04 00:52:37;;;;;;;24.08;6.28;;;;;;;-0.87;100.00;95071.16;4981842;28;20453;-72
2021/12/04 00:55:05;;;;;;;65.18;6.85;;;;;;;-0.91;100.00;95067.34;4984241;28;20069;-73
2021/12/04 00:57:31;;;;;;;33.83;4.20;;;;;;;-0.97;100.00;95069.00;4985353;28;20057;-70
2021/12/04 00:59:56;;;;;;;27.80;6.55;;;;;;;-0.93;100.00;95062.31;4982772;28;20347;-71
2021/12/04 01:02:22;;;;;;;14.45;3.30;;;;;;;-0.98;100.00;95043.75;4984038;28;20073;-71
2021/12/04 01:04:48;;;;;;;31.00;5.95;;;;;;;-0.96;100.00;95057.47;4984368;28;20077;-71
2021/12/04 01:07:14;;;;;;;42.60;4.60;;;;;;;-0.94;100.00;95060.69;4984343;28;20073;-71
2021/12/04 01:09:39;;;;;;;39.35;5.65;;;;;;;-0.93;100.00;95056.25;4985247;28;20914;-71
2021/12/04 01:12:06;;;;;;;44.80;5.72;;;;;;;-0.91;100.00;95057.66;4984419;28;20642;-72
2021/12/04 01:14:34;;;;;;;22.83;3.47;;;;;;;-0.94;100.00;95050.19;4985841;28;20038;-71
2021/12/04 01:17:00;;;;;;;62.53;4.97;;;;;;;-0.97;100.00;95048.00;4983097;28;20039;-71
2021/12/04 01:19:26;;;;;;;20.10;4.10;;;;;;;-0.93;100.00;95040.50;4983407;28;20488;-75
2021/12/04 01:21:53;;;;;;;18.38;4.88;;;;;;;-0.94;100.00;95039.69;4983597;28;20034;-72
2021/12/04 01:24:20;;;;;;;13.20;6.28;;;;;;;-0.97;100.00;95024.34;4983797;28;20382;-71
2021/12/04 01:26:47;;;;;;;12.38;3.42;;;;;;;-0.93;100.00;95036.06;4983690;28;20069;-74
2021/12/04 01:29:13;;;;;;;7.72;4.63;;;;;;;-0.91;100.00;95035.84;4983510;28;20057;-71
2021/12/04 01:31:39;;;;;;;6.20;2.95;;;;;;;-0.92;100.00;95026.34;4982262;28;20042;-71
2021/12/04 01:34:04;;;;;;;7.32;3.80;;;;;;;-0.89;100.00;95026.72;4980464;28;20049;-72
2021/12/04 01:36:30;;;;;;;7.25;4.35;;;;;;;-0.86;100.00;95022.88;4983960;28;20042;-72
2021/12/04 01:38:56;;;;;;;11.07;4.40;;;;;;;-0.86;100.00;95020.22;4980552;28;20042;-71
2021/12/04 01:41:21;;;;;;;8.50;5.13;;;;;;;-0.83;100.00;95024.28;4984054;28;20026;-75
2021/12/04 01:43:47;;;;;;;8.38;4.80;;;;;;;-0.86;100.00;95018.44;4984102;28;20042;-71
2021/12/04 01:46:13;;;;;;;11.73;6.63;;;;;;;-0.79;100.00;95012.31;4981641;28;20042;-72
2021/12/04 01:48:38;;;;;;;9.73;5.85;;;;;;;-0.78;100.00;95017.34;4983365;28;20045;-75
2021/12/04 01:51:04;;;;;;;14.75;7.40;;;;;;;-0.72;100.00;95019.13;4983026;28;20054;-75
2021/12/04 01:53:30;;;;;;;19.13;8.10;;;;;;;-0.71;100.00;95012.06;4965456;28;20054;-72
2021/12/04 01:55:57;;;;;;;12.20;5.22;;;;;;;-0.74;100.00;95002.78;4983663;28;20038;-75
2021/12/04 01:58:24;;;;;;;10.52;5.60;;;;;;;-0.76;100.00;95010.09;4984184;28;20035;-71
2021/12/04 02:00:50;;;;;;;20.30;7.97;;;;;;;-0.70;100.00;95005.78;4981536;28;20420;-72
2021/12/04 02:03:17;;;;;;;23.08;6.65;;;;;;;-0.76;100.00;95001.41;4981552;28;20045;-71
2021/12/04 02:05:43;;;;;;;10.75;5.88;;;;;;;-0.70;100.00;95000.53;4966804;28;20139;-71
2021/12/04 02:08:13;;;;;;;38.70;5.90;;;;;;;-0.76;100.00;94998.78;4980957;28;20042;-73
2021/12/04 02:10:39;;;;;;;19.20;6.28;;;;;;;-0.80;99.86;94992.31;4983919;28;20042;-72
2021/12/04 02:13:05;;;;;;;30.00;5.15;;;;;;;-0.80;100.00;94997.56;4981811;28;20046;-73
2021/12/04 02:15:31;;;;;;;15.15;7.18;;;;;;;-0.81;100.00;94988.09;4983117;28;20038;-72
2021/12/04 02:17:57;;;;;;;28.38;9.65;;;;;;;-0.81;100.00;94990.72;4983461;28;20038;-72
2021/12/04 02:20:27;;;;;;;8.85;4.82;;;;;;;-0.83;100.00;94982.25;4982544;28;20034;-71
2021/12/04 02:22:53;;;;;;;30.10;7.50;;;;;;;-0.80;100.00;94984.44;4982525;28;20129;-73
2021/12/04 02:25:19;;;;;;;35.40;8.25;;;;;;;-0.78;100.00;94975.31;4981120;28;20139;-70
2021/12/04 02:27:45;;;;;;;80.30;9.50;;;;;;;-0.73;100.00;94972.06;4981770;28;20422;-70
2021/12/04 02:30:15;;;;;;;99.03;9.07;;;;;;;-0.79;100.00;94972.91;4981091;28;20030;-71
2021/12/04 02:32:41;;;;;;;100.30;10.00;;;;;;;-0.78;100.00;94969.25;4982807;28;20077;-72
2021/12/04 02:35:08;;;;;;;33.53;4.22;;;;;;;-0.79;100.00;94968.47;4965824;28;20128;-72
2021/12/04 02:37:36;;;;;;;76.35;8.90;;;;;;;-0.83;100.00;94966.50;4982122;28;20088;-71
2021/12/04 02:40:04;;;;;;;138.57;11.48;;;;;;;-0.81;100.00;94960.00;4982501;28;20058;-71
2021/12/04 02:42:31;;;;;;;204.30;12.50;;;;;;;-0.78;100.00;94948.25;4982625;28;20096;-71
2021/12/04 02:45:03;;;;;;;146.05;11.15;;;;;;;-0.74;100.00;94955.50;4980636;28;20501;-70
2021/12/04 02:47:29;;;;;;;145.38;10.27;;;;;;;-0.77;100.00;94940.19;4981718;28;20046;-70
2021/12/04 02:49:56;;;;;;;225.57;10.63;;;;;;;-0.78;100.00;94943.81;4981286;28;20482;-71
2021/12/04 02:52:22;;;;;;;80.55;6.03;;;;;;;-0.83;100.00;94935.78;4982433;28;20117;-71
2021/12/04 02:54:50;;;;;;;196.93;11.68;;;;;;;-0.83;100.00;94932.34;4982511;28;20026;-72
2021/12/04 02:57:17;;;;;;;166.10;9.30;;;;;;;-0.82;100.00;94940.00;4982452;28;20425;-70
2021/12/04 02:59:43;;;;;;;110.03;7.10;;;;;;;-0.89;100.00;94937.44;4982050;28;20043;-70
2021/12/04 03:02:21;;;;;;;365.08;15.43;;;;;;;-0.87;100.00;94924.06;4980601;28;20046;-71
2021/12/04 03:04:59;;;;;;;206.63;11.48;;;;;;;-0.90;100.00;94924.53;4980876;28;20042;-71
2021/12/04 03:07:25;;;;;;;183.35;8.63;;;;;;;-0.90;100.00;94917.44;4983099;28;20042;-70
2021/12/04 03:09:51;;;;;;;308.23;14.48;;;;;;;-0.89;100.00;94913.00;4983121;28;20056;-70
2021/12/04 03:12:19;;;;;;;231.90;11.85;;;;;;;-0.87;100.00;94896.00;4981499;28;20038;-71
2021/12/04 03:14:45;;;;;;;191.38;8.30;;;;;;;-0.88;100.00;94897.00;4983044;28;20034;-70
2021/12/04 03:17:11;;;;;;;358.08;16.63;;;;;;;-0.90;100.00;94899.06;4980098;28;20034;-70
2021/12/04 03:19:39;;;;;;;340.55;18.25;;;;;;;-0.92;100.00;94885.34;4981647;28;20034;-70
2021/12/04 03:22:06;;;;;;;344.27;16.63;;;;;;;-0.91;100.00;94892.19;4982763;28;20042;-72
2021/12/04 03:24:35;;;;;;;200.30;8.90;;;;;;;-0.90;100.00;94890.38;4983877;28;20456;-69
2021/12/04 03:27:01;;;;;;;268.58;8.95;;;;;;;-0.92;100.00;94884.53;4983587;28;20047;-70
2021/12/04 03:29:29;;;;;;;260.20;10.13;;;;;;;-0.88;100.00;94867.31;4982405;28;20096;-70
2021/12/04 03:32:16;;;;;;;205.00;9.13;;;;;;;-0.90;100.00;94861.50;4981675;28;20039;-73
2021/12/04 03:42:39;;;;;;;116.65;4.80;;;;;;;-0.93;100.00;94865.38;4980299;28;20096;-70
2021/12/04 03:45:08;;;;;;;36.63;2.38;;;;;;;-0.98;100.00;94849.44;4980695;28;20507;-73
2021/12/04 03:47:34;;;;;;;207.98;10.70;;;;;;;-0.91;100.00;94858.06;4981236;28;20058;-70
2021/12/04 03:49:59;;;;;;;155.93;7.53;;;;;;;-0.86;100.00;94852.16;4981417;28;20119;-72
2021/12/04 03:52:25;;;;;;;269.30;9.70;;;;;;;-0.87;100.00;94851.34;4981986;28;20165;-71
2021/12/04 03:54:50;;;;;;;371.00;14.25;;;;;;;-0.83;100.00;94856.97;4983077;28;20042;-70
2021/12/04 03:57:17;;;;;;;290.65;13.52;;;;;;;-0.81;100.00;94852.31;4980432;28;20473;-71
2021/12/04 03:59:47;;;;;;;297.98;13.05;;;;;;;-0.83;100.00;94851.72;4980725;28;20121;-70
2021/12/04 04:02:15;;;;;;;213.40;9.00;;;;;;;-0.74;100.00;94845.19;4979595;28;20642;-70
2021/12/04 04:04:41;;;;;;;266.90;10.57;;;;;;;-0.67;100.00;94837.22;4982598;28;20034;-70
2021/12/04 04:07:08;;;;;;;406.35;14.27;;;;;;;-0.61;100.00;94837.16;4989100;28;20500;-70
2021/12/04 04:09:34;;;;;;;379.00;11.95;;;;;;;-0.50;100.00;94840.88;4990582;28;20069;-70
2021/12/04 04:12:00;;;;;;;362.23;12.07;;;;;;;-0.59;100.00;94843.00;4987053;28;20051;-70
2021/12/04 04:14:26;;;;;;;363.23;14.73;;;;;;;-0.63;100.00;94835.75;4986805;28;20034;-72
2021/12/04 04:16:55;;;;;;;370.20;12.20;;;;;;;-0.64;100.00;94852.53;4986773;28;20042;-71
2021/12/04 04:19:22;;;;;;;367.92;12.48;;;;;;;-0.58;100.00;94846.44;4987832;28;20042;-71
2021/12/04 04:21:52;;;;;;;369.40;13.98;;;;;;;-0.57;100.00;94846.19;4985519;28;20073;-71
2021/12/04 04:24:18;;;;;;;331.35;11.57;;;;;;;-0.59;100.00;94843.00;4987315;28;20050;-73
2021/12/04 04:26:45;;;;;;;355.90;11.40;;;;;;;-0.55;100.00;94838.09;4984448;28;20046;-71
2021/12/04 04:29:11;;;;;;;266.38;12.65;;;;;;;-0.55;100.00;94830.22;4983675;28;20510;-70
2021/12/04 04:31:49;;;;;;;277.98;10.20;;;;;;;-0.61;100.00;94821.41;4983489;28;20157;-71
2021/12/04 04:34:30;;;;;;;298.13;12.50;;;;;;;-0.65;100.00;94808.91;4984204;28;20514;-71
2021/12/04 05:14:39;;;;;;;36.70;1.90;;;;;;;-0.97;100.00;94781.97;4983747;28;20523;-71
2021/12/04 05:17:08;;;;;;;176.35;5.75;;;;;;;-1.00;100.00;94772.72;4982011;28;20883;-70
2021/12/04 05:19:40;;;;;;;356.55;11.00;;;;;;;-0.99;100.00;94779.56;4983400;28;20686;-73
2021/12/04 05:22:07;;;;;;;58.92;2.42;;;;;;;-0.99;100.00;94773.50;4981254;28;20053;-74
2021/12/04 05:24:33;;;;;;;456.52;19.90;;;;;;;-1.05;100.00;94764.66;4983269;28;20081;-71
2021/12/04 05:26:59;;;;;;;298.45;11.48;;;;;;;-1.10;100.00;94758.47;4982490;28;20301;-72
2021/12/04 05:29:24;;;;;;;383.85;13.93;;;;;;;-0.99;100.00;94770.88;4982755;28;20118;-72
2021/12/04 05:31:50;;;;;;;281.73;10.20;;;;;;;-1.04;100.00;94765.47;4983219;28;20034;-73
2021/12/04 05:34:16;;;;;;;246.98;9.60;;;;;;;-1.06;100.00;94767.53;4983949;28;20034;-74
2021/12/04 05:36:42;;;;;;;344.30;13.23;;;;;;;-1.13;100.00;94768.38;4983076;28;20113;-73
2021/12/04 05:39:08;;;;;;;331.58;12.60;;;;;;;-1.16;100.00;94758.31;4967522;28;20038;-72
2021/12/04 05:41:34;;;;;;;430.45;18.42;;;;;;;-1.08;100.00;94769.56;4987669;28;20135;-71
2021/12/04 05:44:05;;;;;;;229.23;8.30;;;;;;;-1.10;100.00;94756.63;4984153;28;20046;-71
2021/12/04 05:46:37;;;;;;;42.97;2.35;;;;;;;-1.14;100.00;94751.03;4984472;28;20041;-74
2021/12/04 05:49:10;;;;;;;426.92;16.52;;;;;;;-1.17;100.00;94746.22;4983447;28;20121;-71
2021/12/04 05:54:48;;;;;;;117.63;5.35;;;;;;;-1.16;100.00;94745.19;4981985;28;20043;-70
2021/12/04 05:57:14;;;;;;;481.50;16.52;;;;;;;-1.14;100.00;94753.66;4982792;28;20061;-72
2021/12/04 05:59:39;;;;;;;146.77;7.22;;;;;;;-1.15;100.00;94749.44;4982896;28;20046;-70
2021/12/04 06:02:05;;;;;;;463.58;17.85;;;;;;;-1.09;100.00;94760.84;4982719;28;20687;-70
2021/12/04 06:04:31;;;;;;;390.77;16.40;;;;;;;-1.15;100.00;94762.56;4983341;28;20082;-72
2021/12/04 06:06:57;;;;;;;237.65;10.55;;;;;;;-1.16;100.00;94757.53;4982736;28;20038;-70
2021/12/04 06:09:23;;;;;;;452.42;15.80;;;;;;;-1.19;100.00;94752.69;4983563;28;20049;-71
2021/12/04 06:11:48;;;;;;;312.80;12.85;;;;;;;-1.21;100.00;94747.66;4982922;28;20037;-73
2021/12/04 06:14:14;;;;;;;176.38;8.43;;;;;;;-1.16;100.00;94755.69;4982772;28;20026;-70
2021/12/04 06:16:39;;;;;;;219.88;8.55;;;;;;;-1.16;100.00;94768.03;4982585;28;20043;-70
2021/12/04 06:19:11;;;;;;;405.75;19.33;;;;;;;-1.13;100.00;94768.38;4964963;28;20042;-70
2021/12/04 06:24:21;;;;;;;376.52;11.43;;;;;;;-1.17;100.00;94750.66;4981544;28;20493;-71
2021/12/04 06:26:47;;;;;;;224.05;9.85;;;;;;;-1.25;100.00;94737.78;4983127;28;20145;-71
2021/12/04 06:29:12;;;;;;;67.45;3.40;;;;;;;-1.29;100.00;94732.19;4981632;28;20191;-71
2021/12/04 06:31:38;;;;;;;453.17;17.92;;;;;;;-1.22;100.00;94722.44;4984156;28;20362;-71
2021/12/04 06:34:04;;;;;;;329.85;12.35;;;;;;;-1.21;100.00;94724.03;4979924;28;20042;-72
2021/12/04 06:36:29;;;;;;;205.15;10.20;;;;;;;-1.21;100.00;94733.75;4966825;28;20031;-71
2021/12/04 06:38:55;;;;;;;417.83;16.35;;;;;;;-1.17;100.00;94733.09;4982417;28;20030;-71
2021/12/04 06:41:21;;;;;;;232.45;9.52;;;;;;;-1.13;100.00;94742.13;4983060;28;20275;-72
2021/12/04 06:43:51;;;;;;;263.33;11.20;;;;;;;-1.06;100.00;94744.69;4982344;28;20039;-70
2021/12/04 06:46:20;;;;;;;197.00;7.38;;;;;;;-1.07;100.00;94750.16;4981591;28;20069;-70
2021/12/04 06:49:06;;;;;;;104.90;4.45;;;;;;;-1.08;100.00;94749.38;4983387;28;20480;-73
2021/12/04 06:51:38;;;;;;;110.38;5.22;;;;;;;-1.03;100.00;94751.31;4983215;28;20046;-71
2021/12/04 06:54:07;;;;;;;128.75;6.72;;;;;;;-1.07;100.00;94750.97;4980068;28;20050;-70
2021/12/04 06:56:38;;;;;;;141.85;6.18;;;;;;;-1.07;100.00;94750.16;4982641;28;20769;-70
2021/12/04 06:59:08;;;;;;;92.40;4.00;;;;;;;-1.13;100.00;94754.44;4980961;28;20077;-69
2021/12/04 07:01:34;;;;;;;112.85;7.55;;;;;;;-1.14;100.00;94750.22;4983676;28;20054;-70
2021/12/04 07:04:00;;;;;;;151.82;5.97;;;;;;;-1.18;100.00;94743.78;4982975;28;20425;-70
2021/12/04 07:06:26;;;;;;;68.93;4.65;;;;;;;-1.07;100.00;94748.34;4984684;28;20112;-72
2021/12/04 07:08:51;;;;;;;62.15;5.05;;;;;;;-1.06;100.00;94747.31;4982653;28;20078;-71
2021/12/04 07:11:17;;;;;;;66.85;5.38;;;;;;;-1.06;100.00;94757.81;4983965;28;20046;-69
2021/12/04 07:13:42;;;;;;;132.75;7.75;;;;;;;-1.07;100.00;94744.91;4982671;28;20042;-71
2021/12/04 07:16:08;;;;;;;49.60;3.63;;;;;;;-1.13;100.00;94736.06;4982030;28;20117;-71
2021/12/04 07:18:35;;;;;;;47.67;3.80;;;;;;;-1.13;100.00;94725.56;4981192;28;20047;-73
2021/12/04 07:21:02;;;;;;;83.18;4.07;;;;;;;-1.16;100.00;94720.78;4983331;28;20045;-69
2021/12/04 07:23:27;;;;;;;20.02;3.30;;;;;;;-1.02;100.00;94722.22;4983323;28;20409;-69
2021/12/04 07:25:53;;;;;;;24.02;2.47;;;;;;;-1.08;100.00;94720.47;4982689;28;20050;-72
2021/12/04 07:28:19;;;;;;;18.38;3.58;;;;;;;-1.14;100.00;94722.16;4982025;28;20070;-71
2021/12/04 07:30:44;;;;;;;26.25;3.58;;;;;;;-1.15;100.00;94722.38;4980392;28;20133;-71
2021/12/04 07:33:10;;;;;;;8.20;1.67;;;;;;;-1.20;100.00;94714.34;4982379;28;20067;-71
2021/12/04 07:35:37;;;;;;;13.65;2.78;;;;;;;-1.19;100.00;94708.06;4984073;28;20551;-69
2021/12/04 07:38:02;;;;;;;20.55;3.20;;;;;;;-1.20;100.00;94711.72;4980282;28;20042;-72
2021/12/04 07:40:29;;;;;;;9.02;2.58;;;;;;;-1.23;100.00;94706.91;4982575;28;20039;-72
2021/12/04 07:42:54;;;;;;;7.82;2.47;;;;;;;-1.16;100.00;94713.69;4982731;28;20126;-74
2021/12/04 07:45:20;;;;;;;12.60;3.88;;;;;;;-0.98;100.00;94710.28;4987211;28;20038;-71
2021/12/04 07:47:46;;;;;;;17.45;6.57;;;;;;;-0.94;100.00;94714.03;4986945;28;20706;-71
2021/12/04 07:50:12;;;;;;;24.23;10.82;;;;;;;-1.00;100.00;94714.16;4986401;28;20121;-70
2021/12/04 07:52:38;;;;;;;17.33;7.05;;;;;;;-1.06;100.00;94709.75;4984960;28;20137;-71
2021/12/04 07:55:07;;;;;;;27.55;9.10;;;;;;;-1.08;100.00;94707.34;4968105;28;20674;-70
2021/12/04 07:57:33;;;;;;;33.75;10.20;;;;;;;-1.05;100.00;94711.38;4986507;28;20046;-70
2021/12/04 07:59:59;;;;;;;13.23;7.63;;;;;;;-1.01;100.00;94708.09;4984106;28;20655;-71
2021/12/04 08:02:25;;;;;;;39.55;10.90;;;;;;;-0.98;100.00;94712.91;4986706;28;20069;-74
2021/12/04 08:04:50;;;;;;;17.42;4.25;;;;;;;-1.02;99.63;94719.59;4985447;28;20130;-71
2021/12/04 08:07:16;;;;;;;8.35;3.83;;;;;;;-1.03;100.00;94718.00;4985353;28;20042;-72
2021/12/04 08:09:41;;;;;;;6.78;3.58;;;;;;;-0.97;100.00;94727.63;4986041;28;20045;-72
2021/12/04 08:12:09;;;;;;;7.82;4.50;;;;;;;-0.87;99.93;94725.28;4986208;28;20054;-74
2021/12/04 08:14:37;;;;;;;6.68;2.28;;;;;;;-0.92;100.00;94722.53;4984758;28;20397;-71
2021/12/04 08:17:03;;;;;;;4.53;2.65;;;;;;;-0.98;99.88;94715.53;4969089;28;20042;-71
2021/12/04 08:19:28;;;;;;;13.63;3.60;;;;;;;-0.90;99.59;94725.72;4986639;28;20416;-70
2021/12/04 08:21:54;;;;;;;5.45;2.10;;;;;;;-0.93;100.00;94728.00;4988777;28;20030;-71
2021/12/04 08:24:19;;;;;;;17.40;3.13;;;;;;;-0.97;100.00;94716.31;4990106;28;20042;-70
2021/12/04 08:26:46;;;;;;;15.10;4.32;;;;;;;-0.85;99.65;94719.84;4988598;28;20154;-72
2021/12/04 08:29:13;;;;;;;14.85;3.00;;;;;;;-0.88;99.49;94722.88;4967813;28;20121;-70
2021/12/04 08:31:39;;;;;;;14.93;3.35;;;;;;;-0.92;100.00;94722.53;4985713;28;20493;-73
2021/12/04 08:34:05;;;;;;;4.13;1.55;;;;;;;-0.93;99.62;94718.31;4986453;28;20042;-70
2021/12/04 08:36:32;;;;;;;5.80;2.13;;;;;;;-0.97;100.00;94717.13;4986078;28;20038;-75
2021/12/04 08:39:03;;;;;;;27.23;3.13;;;;;;;-0.93;100.00;94717.50;4967580;28;20042;-72
2021/12/04 08:41:29;;;;;;;13.93;1.83;;;;;;;-0.90;100.00;94712.59;4986286;28;20049;-72
2021/12/04 08:43:55;;;;;;;49.50;4.20;;;;;;;-0.86;100.00;94711.16;4984472;28;20042;-71
2021/12/04 08:46:22;;;;;;;43.65;3.67;;;;;;;-0.90;100.00;94712.59;4983815;28;20495;-71
2021/12/04 08:48:52;;;;;;;41.88;4.43;;;;;;;-0.91;99.69;94732.00;4981848;28;20101;-74
2021/12/04 08:51:21;;;;;;;50.47;7.47;;;;;;;-0.88;100.00;94723.69;4984143;28;20046;-74
2021/12/04 08:53:48;;;;;;;71.55;5.25;;;;;;;-0.84;100.00;94708.31;4981648;28;20295;-71
2021/12/04 08:56:14;;;;;;;96.25;5.47;;;;;;;-0.74;100.00;94718.28;4983997;28;20048;-71
2021/12/04 08:58:42;;;;;;;19.67;3.38;;;;;;;-0.83;100.00;94714.34;4984838;28;20038;-71
2021/12/04 09:01:12;;;;;;;80.57;4.32;;;;;;;-0.88;100.00;94712.38;4982188;28;20050;-71
2021/12/04 09:03:42;;;;;;;94.50;5.63;;;;;;;-0.90;100.00;94711.81;4982552;28;20038;-69
2021/12/04 09:06:07;;;;;;;135.15;6.68;;;;;;;-0.72;100.00;94713.59;4962025;28;20042;-70
2021/12/04 09:08:34;;;;;;;125.68;6.88;;;;;;;-0.70;100.00;94708.94;4984387;28;20035;-70
2021/12/04 09:11:06;;;;;;;68.30;4.10;;;;;;;-0.70;100.00;94717.63;4983989;28;20038;-69
2021/12/04 09:13:33;;;;;;;92.45;4.65;;;;;;;-0.69;99.85;94721.06;4984555;28;20493;-73
2021/12/04 09:16:00;;;;;;;137.27;6.57;;;;;;;-0.72;100.00;94721.47;4981105;28;20046;-71
2021/12/04 09:18:26;;;;;;;109.40;4.82;;;;;;;-0.71;100.00;94723.09;4984015;28;20042;-70
2021/12/04 09:20:53;;;;;;;125.60;6.07;;;;;;;-0.67;99.56;94726.88;4983736;28;20484;-70
2021/12/04 09:23:20;;;;;;;89.13;6.65;;;;;;;-0.71;100.00;94716.00;4983834;28;20030;-70
2021/12/04 09:25:55;;;;;;;111.82;5.88;;;;;;;-0.68;100.00;94728.72;4983526;28;20133;-71
2021/12/04 09:29:11;;;;;;;47.25;3.88;;;;;;;-0.65;100.00;94730.09;4984418;28;20568;-70
2021/12/04 09:36:31;;;;;;;171.50;7.38;;;;;;;-0.41;99.75;94710.78;4983762;28;20047;-72
2021/12/04 10:11:10;;;;;;;52.92;3.80;;;;;;;-0.21;98.62;94668.47;4982348;28;20050;-71
2021/12/04 10:15:39;;;;;;;17.58;4.03;;;;;;;-0.27;98.60;94669.34;4979859;28;20230;-71
2021/12/04 10:34:50;;;;;;;;;;;;;;;-0.16;98.91;94620.44;4984768;28;20053;-73
2021/12/04 10:37:24;;;;;;;47.97;3.38;;;;;;;-0.15;98.57;94616.81;4982377;28;20312;-72
2021/12/04 10:39:59;;;;;;;59.58;3.65;;;;;;;-0.26;98.48;94610.50;4983091;28;20049;-74
2021/12/04 10:42:33;;;;;;;22.52;2.80;;;;;;;-0.10;98.69;94606.41;4983330;28;20057;-71
2021/12/04 10:44:59;;;;;;;57.38;2.72;;;;;;;-0.13;99.36;94591.09;4965045;28;20589;-73
2021/12/04 10:47:27;;;;;;;45.58;2.80;;;;;;;0.02;98.62;94580.13;4965018;28;20034;-71
2021/12/04 10:56:07;;;;;;;50.28;3.50;;;;;;;-0.10;98.02;94553.81;4982015;28;20042;-71
2021/12/04 11:00:58;;;;;;;62.88;4.32;;;;;;;-0.03;98.64;94559.75;4982747;28;20576;-74
2021/12/04 11:22:47;;;;;;;17.05;1.83;;;;;;;0.15;97.97;94517.56;4980747;28;20034;-71
2021/12/04 11:39:07;;;;;;;22.27;2.50;;;;;;;0.54;96.39;94494.13;4984478;28;20034;-71
2021/12/04 11:44:29;;;;;;;2.63;0.98;;;;;;;0.26;96.66;94479.91;4981564;28;20046;-71
2021/12/04 11:46:59;;;;;;;5.30;1.58;;;;;;;0.29;97.43;94468.13;4980466;28;20042;-72
2021/12/04 11:49:32;;;;;;;34.75;3.45;;;;;;;0.40;97.46;94464.69;4963505;28;20044;-70
2021/12/04 11:52:01;;;;;;;14.88;2.10;;;;;;;0.40;97.65;94458.63;4982572;28;20050;-71
2021/12/04 11:54:30;;;;;;;11.13;2.28;;;;;;;0.51;97.13;94458.56;4980985;28;20065;-73
2021/12/04 11:57:06;;;;;;;4.72;1.30;;;;;;;0.41;96.88;94452.31;4981309;28;20046;-72
2021/12/04 11:59:35;;;;;;;10.68;3.17;;;;;;;0.61;97.05;94447.44;4982222;28;20211;-71
2021/12/04 12:02:05;;;;;;;7.35;2.30;;;;;;;0.62;97.09;94438.50;4981755;28;20047;-72
2021/12/04 12:04:36;;;;;;;2.05;1.15;;;;;;;0.44;97.00;94436.84;4983161;28;20070;-71
2021/12/04 12:07:11;;;;;;;15.93;2.00;;;;;;;0.31;97.80;94423.16;4981259;28;20046;-72
2021/12/04 12:09:39;;;;;;;10.93;2.67;;;;;;;0.24;98.12;94439.91;4983493;28;20046;-71
2021/12/04 12:12:07;;;;;;;22.98;2.30;;;;;;;0.21;98.16;94444.81;4979034;28;20066;-71
2021/12/04 12:14:39;;;;;;;5.75;1.85;;;;;;;0.21;98.66;94444.81;4981376;28;20559;-72
2021/12/04 12:17:07;;;;;;;12.38;2.03;;;;;;;0.27;98.67;94444.69;4980866;28;20046;-71
2021/12/04 12:19:41;;;;;;;5.97;2.00;;;;;;;0.29;99.00;94423.41;4980747;28;20035;-72
2021/12/04 12:22:25;;;;;;;5.85;1.73;;;;;;;0.25;98.72;94422.28;4982352;28;20054;-72
2021/12/04 12:33:17;;;;;;;5.68;2.10;;;;;;;0.13;99.66;94403.88;4985266;28;20466;-71
2021/12/04 12:38:56;;;;;;;11.85;2.45;;;;;;;0.23;99.61;94404.09;4987751;28;20081;-73
2021/12/04 12:41:31;;;;;;;9.35;2.25;;;;;;;0.31;99.92;94394.22;4989838;28;20046;-72
2021/12/04 12:43:56;;;;;;;7.75;1.70;;;;;;;0.27;99.28;94393.91;4987073;28;20117;-70
2021/12/04 12:46:41;;;;;;;9.25;1.88;;;;;;;0.30;99.31;94379.47;4986436;28;20160;-75
2021/12/04 12:49:24;;;;;;;7.38;1.75;;;;;;;0.33;99.71;94379.03;4983329;28;20069;-71
2021/12/04 12:52:01;;;;;;;13.98;2.40;;;;;;;0.25;99.05;94372.28;4985269;28;20038;-75
2021/12/04 12:54:37;;;;;;;4.38;1.52;;;;;;;0.14;99.92;94365.22;4984456;28;20068;-70
2021/12/04 12:57:24;;;;;;;2.80;1.42;;;;;;;0.25;99.56;94359.94;4982134;28;20052;-71
2021/12/04 13:14:23;;;;;;;38.92;4.60;;;;;;;0.22;99.88;94331.47;4979168;28;20054;-72
2021/12/04 13:17:04;;;;;;;68.18;3.47;;;;;;;0.38;100.00;94331.72;4968350;28;21229;-72
2021/12/04 13:19:30;;;;;;;86.43;3.93;;;;;;;0.31;100.00;94331.06;4982157;28;20152;-71
2021/12/04 13:22:02;;;;;;;162.15;7.57;;;;;;;0.25;99.92;94323.09;4979830;28;20536;-72
2021/12/04 13:24:33;;;;;;;122.65;5.78;;;;;;;0.28;100.00;94312.09;4979616;28;20476;-73
2021/12/04 13:29:42;;;;;;;76.40;5.35;;;;;;;0.17;100.00;94312.19;4981513;28;20949;-73
2021/12/04 13:32:11;;;;;;;112.32;5.38;;;;;;;0.20;100.00;94309.06;4980539;28;20058;-71
2021/12/04 13:34:38;;;;;;;189.80;8.30;;;;;;;0.25;100.00;94317.84;4979922;28;20031;-71
2021/12/04 13:37:05;;;;;;;65.65;3.45;;;;;;;0.25;100.00;94312.59;4982997;28;20042;-75
2021/12/04 13:39:31;;;;;;;59.25;2.83;;;;;;;0.14;100.00;94310.00;4980851;28;20112;-74
2021/12/04 13:41:57;;;;;;;74.75;4.03;;;;;;;0.19;100.00;94316.16;4981039;28;20508;-71
2021/12/04 13:44:26;;;;;;;146.93;6.15;;;;;;;0.24;100.00;94316.25;4981755;28;20485;-72
2021/12/04 13:47:06;;;;;;;52.25;2.95;;;;;;;0.25;100.00;94322.31;4980961;28;20651;-73
2021/12/04 13:49:39;;;;;;;33.08;2.33;;;;;;;0.30;100.00;94330.28;4981937;28;20122;-70
2021/12/04 13:52:12;;;;;;;13.55;2.45;;;;;;;0.27;100.00;94341.28;4982563;28;20129;-71
2021/12/04 13:54:49;;;;;;;4.03;1.35;;;;;;;0.21;100.00;94332.50;4982058;28;20074;-69
2021/12/04 13:57:15;;;;;;;3.72;1.77;;;;;;;0.20;100.00;94330.91;4979259;28;20042;-70
2021/12/04 13:59:42;;;;;;;4.85;1.40;;;;;;;0.12;100.00;94328.66;4981299;28;20054;-69
2021/12/04 14:02:23;;;;;;;7.63;2.03;;;;;;;0.17;100.00;94306.91;4981632;28;20146;-69
2021/12/04 14:04:56;;;;;;;3.22;1.00;;;;;;;0.20;100.00;94286.19;4983969;28;20465;-68
2021/12/04 14:07:22;;;;;;;1.65;0.90;;;;;;;0.25;100.00;94286.28;4983643;28;20100;-69
2021/12/04 14:09:47;;;;;;;5.97;1.70;;;;;;;0.33;100.00;94282.47;4982800;28;20042;-71
2021/12/04 14:12:13;;;;;;;2.40;1.30;;;;;;;0.44;100.00;94286.06;4981840;28;20141;-71
2021/12/04 14:14:39;;;;;;;4.50;1.63;;;;;;;0.51;100.00;94279.59;4982773;28;20076;-72
2021/12/04 14:17:12;;;;;;;12.25;4.53;;;;;;;0.48;100.00;94279.28;4980698;28;20038;-74
2021/12/04 14:19:38;;;;;;;7.63;2.53;;;;;;;0.60;100.00;94282.63;4982439;28;20177;-70
2021/12/04 14:22:08;;;;;;;4.70;1.98;;;;;;;0.78;100.00;94282.41;4963498;28;20336;-74
2021/12/04 14:24:44;;;;;;;14.73;3.83;;;;;;;0.80;99.67;94288.22;4980517;28;20049;-70
2021/12/04 14:27:15;;;;;;;24.17;6.55;;;;;;;0.75;99.63;94292.59;4979043;28;20440;-70
2021/12/04 14:29:46;;;;;;;8.27;3.35;;;;;;;0.71;98.91;94281.78;4981848;28;20056;-71
2021/12/04 14:32:12;;;;;;;8.90;4.57;;;;;;;0.71;99.17;94294.13;4981707;28;20073;-71
2021/12/04 14:34:38;;;;;;;7.32;2.58;;;;;;;0.73;99.29;94276.25;4979650;28;20133;-69
2021/12/04 14:37:12;;;;;;;19.75;2.03;;;;;;;0.81;99.27;94274.03;4980580;28;20043;-70
2021/12/04 14:39:48;;;;;;;18.88;2.33;;;;;;;0.78;98.63;94279.78;4981596;28;20042;-70